Strona główna
METAR-TAF:

METAR-TAF

Lotnisko :

Port lotniczy Yap

Yap, Mikronezja

Szerokość geograficzna: 09-29N, Długość geograficzna: 138-05E, wysokość: 28 m

Aktualna obserwacja pogody

Raport powstał 19 minut temu, godzina 11:51 UTC
Wiatr 3 kt z kierunków zmiennych
Temperatura 27°C
Wilgotność 89%
Ciśnienie 1004 hPa
Widzialność: 19.3 km
Rozproszone chmury na wysokości 1600 ft, Cumulonimbus.
Przerywane chmury na wysokości 13000 ft
Zachmurzenie całkowite na wysokości 30000 ft

METAR: PTYA 161151Z VRB03KT 12SM SCT016CB BKN130 OVC300 27/25 A2966 RMK SHRAE30 CB ALQDS SLP046 60005 70218 8/371 T02710254 10295 20257 52012

czas: 22:10 (12:10 UTC)

Prognoza

Raport powstał 42 minut temu, godzina 11:28 UTC
Prognoza ważna od 16 godzina 12 UTC do 17 godzina 12 UTC
Wiatr 11 kt od zachodnio-południowy zachód
Widzialność: 10 km
Rozproszone chmury na wysokości 1600 ft
Przerywane chmury na wysokości 4000 ft
Przerywane chmury na wysokości 10000 ft
przelotny w pobliże

TAF: PTYA 161128Z 1612/1712 25011KT P6SM VCSH SCT016 BKN040 BKN100

Obserwacja i prognoza pogody dla ponad 4000 lotnisk (raport METAR i TAF).

Dostępne stacje oznaczono żółtymi i czerwonymi punktami na mapie.

Najedź kursorem aby zobaczyć nazwę stacji.

Kliknij aby zobaczyć obserwacje i prognozy pogody.

Aby zmienić mapę: kliknij na zielony przycisk z czarnym krzyżykiem, aby powiększyć; na zielony przycisk z myślnikiem, aby pomniejszyć; na zielone strzałki, aby przejść do map sąsiednich.


METAR-TAF: